sensor_id;sensor_type;location;lat;lon;timestamp;temperature;humidity
39017;DHT22;24784;45.582;5.276;2023-02-18T00:00:17;9.00;99.90
39017;DHT22;24784;45.582;5.276;2023-02-18T00:02:44;9.00;99.90
39017;DHT22;24784;45.582;5.276;2023-02-18T00:05:11;9.00;99.90
39017;DHT22;24784;45.582;5.276;2023-02-18T00:07:38;9.00;99.90
39017;DHT22;24784;45.582;5.276;2023-02-18T00:10:05;9.00;99.90
39017;DHT22;24784;45.582;5.276;2023-02-18T00:12:31;9.10;99.90
39017;DHT22;24784;45.582;5.276;2023-02-18T00:14:57;9.10;99.90
39017;DHT22;24784;45.582;5.276;2023-02-18T00:17:23;9.00;99.90
39017;DHT22;24784;45.582;5.276;2023-02-18T00:19:49;9.10;99.90
39017;DHT22;24784;45.582;5.276;2023-02-18T00:22:15;9.10;99.90
39017;DHT22;24784;45.582;5.276;2023-02-18T00:24:41;9.00;99.90
39017;DHT22;24784;45.582;5.276;2023-02-18T00:27:07;9.10;99.90
39017;DHT22;24784;45.582;5.276;2023-02-18T00:29:32;9.10;99.90
39017;DHT22;24784;45.582;5.276;2023-02-18T00:31:58;9.10;99.90
39017;DHT22;24784;45.582;5.276;2023-02-18T00:34:24;9.10;99.90
39017;DHT22;24784;45.582;5.276;2023-02-18T00:36:50;9.10;99.90
39017;DHT22;24784;45.582;5.276;2023-02-18T00:39:15;9.00;99.90
39017;DHT22;24784;45.582;5.276;2023-02-18T00:41:41;9.00;99.90
39017;DHT22;24784;45.582;5.276;2023-02-18T00:44:07;9.00;99.90
39017;DHT22;24784;45.582;5.276;2023-02-18T00:46:34;9.00;99.90
39017;DHT22;24784;45.582;5.276;2023-02-18T00:49:00;9.10;99.90
39017;DHT22;24784;45.582;5.276;2023-02-18T00:51:26;9.10;99.90
39017;DHT22;24784;45.582;5.276;2023-02-18T00:53:52;9.00;99.90
39017;DHT22;24784;45.582;5.276;2023-02-18T00:56:18;9.00;99.90
39017;DHT22;24784;45.582;5.276;2023-02-18T00:58:44;9.00;99.90
39017;DHT22;24784;45.582;5.276;2023-02-18T01:01:10;9.10;99.90
39017;DHT22;24784;45.582;5.276;2023-02-18T01:03:37;9.20;99.90
39017;DHT22;24784;45.582;5.276;2023-02-18T01:06:04;9.10;99.90
39017;DHT22;24784;45.582;5.276;2023-02-18T01:08:30;9.20;99.90
39017;DHT22;24784;45.582;5.276;2023-02-18T01:10:57;9.10;99.90
39017;DHT22;24784;45.582;5.276;2023-02-18T01:13:24;9.10;99.90
39017;DHT22;24784;45.582;5.276;2023-02-18T01:15:50;9.10;99.90
39017;DHT22;24784;45.582;5.276;2023-02-18T01:18:16;9.10;99.90
39017;DHT22;24784;45.582;5.276;2023-02-18T01:20:43;9.00;99.90
39017;DHT22;24784;45.582;5.276;2023-02-18T01:23:10;9.10;99.90
39017;DHT22;24784;45.582;5.276;2023-02-18T01:25:36;9.10;99.90
39017;DHT22;24784;45.582;5.276;2023-02-18T01:28:03;9.10;99.90
39017;DHT22;24784;45.582;5.276;2023-02-18T01:30:29;9.10;99.90
39017;DHT22;24784;45.582;5.276;2023-02-18T01:32:56;9.10;99.90
39017;DHT22;24784;45.582;5.276;2023-02-18T01:35:22;9.10;99.90
39017;DHT22;24784;45.582;5.276;2023-02-18T01:37:49;9.10;99.90
39017;DHT22;24784;45.582;5.276;2023-02-18T01:40:18;9.20;99.90
39017;DHT22;24784;45.582;5.276;2023-02-18T01:42:45;9.20;99.90
39017;DHT22;24784;45.582;5.276;2023-02-18T01:50:34;9.20;99.90
39017;DHT22;24784;45.582;5.276;2023-02-18T01:53:01;9.30;99.90
39017;DHT22;24784;45.582;5.276;2023-02-18T01:55:27;9.30;99.90
39017;DHT22;24784;45.582;5.276;2023-02-18T01:57:54;9.20;99.90
39017;DHT22;24784;45.582;5.276;2023-02-18T02:00:20;9.10;99.90
39017;DHT22;24784;45.582;5.276;2023-02-18T02:02:50;9.10;99.90
39017;DHT22;24784;45.582;5.276;2023-02-18T02:05:18;9.20;99.90
39017;DHT22;24784;45.582;5.276;2023-02-18T02:07:47;9.10;99.90
39017;DHT22;24784;45.582;5.276;2023-02-18T02:10:14;9.20;99.90
39017;DHT22;24784;45.582;5.276;2023-02-18T02:15:32;9.20;99.90
39017;DHT22;24784;45.582;5.276;2023-02-18T02:27:22;9.10;99.90
39017;DHT22;24784;45.582;5.276;2023-02-18T02:32:59;9.20;99.90
39017;DHT22;24784;45.582;5.276;2023-02-18T02:35:48;9.10;99.90
39017;DHT22;24784;45.582;5.276;2023-02-18T02:41:01;9.20;99.90
39017;DHT22;24784;45.582;5.276;2023-02-18T02:44:00;9.20;99.90
39017;DHT22;24784;45.582;5.276;2023-02-18T02:46:38;9.10;99.90
39017;DHT22;24784;45.582;5.276;2023-02-18T02:52:03;9.10;99.90
39017;DHT22;24784;45.582;5.276;2023-02-18T02:54:30;9.20;99.90
39017;DHT22;24784;45.582;5.276;2023-02-18T02:59:39;9.20;99.90
39017;DHT22;24784;45.582;5.276;2023-02-18T03:13:21;9.20;99.90
39017;DHT22;24784;45.582;5.276;2023-02-18T03:16:00;9.20;99.90
39017;DHT22;24784;45.582;5.276;2023-02-18T03:18:42;9.10;99.90
39017;DHT22;24784;45.582;5.276;2023-02-18T03:21:15;9.10;99.90
39017;DHT22;24784;45.582;5.276;2023-02-18T03:23:54;9.10;99.90
39017;DHT22;24784;45.582;5.276;2023-02-18T03:26:21;9.10;99.90
39017;DHT22;24784;45.582;5.276;2023-02-18T03:28:50;9.10;99.90
39017;DHT22;24784;45.582;5.276;2023-02-18T03:31:19;9.10;99.90
39017;DHT22;24784;45.582;5.276;2023-02-18T03:33:53;9.20;99.90
39017;DHT22;24784;45.582;5.276;2023-02-18T03:36:21;9.10;99.90
39017;DHT22;24784;45.582;5.276;2023-02-18T03:39:03;9.10;99.90
39017;DHT22;24784;45.582;5.276;2023-02-18T03:41:29;9.00;99.90
39017;DHT22;24784;45.582;5.276;2023-02-18T03:44:00;9.00;99.90
39017;DHT22;24784;45.582;5.276;2023-02-18T03:46:28;9.10;99.90
39017;DHT22;24784;45.582;5.276;2023-02-18T03:48:54;9.00;99.90
39017;DHT22;24784;45.582;5.276;2023-02-18T03:51:20;9.00;99.90
39017;DHT22;24784;45.582;5.276;2023-02-18T03:53:46;9.00;99.90
39017;DHT22;24784;45.582;5.276;2023-02-18T03:56:13;9.10;99.90
39017;DHT22;24784;45.582;5.276;2023-02-18T03:58:38;9.20;99.90
39017;DHT22;24784;45.582;5.276;2023-02-18T04:01:04;9.20;99.90
39017;DHT22;24784;45.582;5.276;2023-02-18T04:03:30;9.30;99.90
39017;DHT22;24784;45.582;5.276;2023-02-18T04:05:56;9.30;99.90
39017;DHT22;24784;45.582;5.276;2023-02-18T04:08:22;9.20;99.90
39017;DHT22;24784;45.582;5.276;2023-02-18T04:10:48;9.20;99.90
39017;DHT22;24784;45.582;5.276;2023-02-18T04:13:14;9.10;99.90
39017;DHT22;24784;45.582;5.276;2023-02-18T04:15:40;9.10;99.90
39017;DHT22;24784;45.582;5.276;2023-02-18T04:18:05;9.10;99.90
39017;DHT22;24784;45.582;5.276;2023-02-18T04:20:31;9.10;99.90
39017;DHT22;24784;45.582;5.276;2023-02-18T04:22:57;9.00;99.90
39017;DHT22;24784;45.582;5.276;2023-02-18T04:25:22;9.00;99.90
39017;DHT22;24784;45.582;5.276;2023-02-18T04:27:48;9.00;99.90
39017;DHT22;24784;45.582;5.276;2023-02-18T04:30:14;9.00;99.90
39017;DHT22;24784;45.582;5.276;2023-02-18T04:32:40;8.90;99.90
39017;DHT22;24784;45.582;5.276;2023-02-18T04:35:05;9.00;99.90
39017;DHT22;24784;45.582;5.276;2023-02-18T04:37:31;8.90;99.90
39017;DHT22;24784;45.582;5.276;2023-02-18T04:39:57;8.90;99.90
39017;DHT22;24784;45.582;5.276;2023-02-18T04:42:23;8.90;99.90
39017;DHT22;24784;45.582;5.276;2023-02-18T04:44:48;8.80;99.90
39017;DHT22;24784;45.582;5.276;2023-02-18T04:47:14;8.90;99.90
39017;DHT22;24784;45.582;5.276;2023-02-18T04:49:40;8.80;99.90
39017;DHT22;24784;45.582;5.276;2023-02-18T04:52:05;8.80;99.90
39017;DHT22;24784;45.582;5.276;2023-02-18T04:54:31;8.80;99.90
39017;DHT22;24784;45.582;5.276;2023-02-18T04:56:57;8.80;99.90
39017;DHT22;24784;45.582;5.276;2023-02-18T04:59:23;8.90;99.90
39017;DHT22;24784;45.582;5.276;2023-02-18T05:01:49;8.90;99.90
39017;DHT22;24784;45.582;5.276;2023-02-18T05:04:15;9.00;99.90
39017;DHT22;24784;45.582;5.276;2023-02-18T05:06:42;8.90;99.90
39017;DHT22;24784;45.582;5.276;2023-02-18T05:09:08;8.80;99.90
39017;DHT22;24784;45.582;5.276;2023-02-18T05:11:34;8.80;99.90
39017;DHT22;24784;45.582;5.276;2023-02-18T05:14:00;8.80;99.90
39017;DHT22;24784;45.582;5.276;2023-02-18T05:16:26;8.80;99.90
39017;DHT22;24784;45.582;5.276;2023-02-18T05:18:52;8.70;99.90
39017;DHT22;24784;45.582;5.276;2023-02-18T05:21:18;8.70;99.90
39017;DHT22;24784;45.582;5.276;2023-02-18T05:23:43;8.70;99.90
39017;DHT22;24784;45.582;5.276;2023-02-18T05:26:09;8.70;99.90
39017;DHT22;24784;45.582;5.276;2023-02-18T05:28:35;8.60;99.90
39017;DHT22;24784;45.582;5.276;2023-02-18T05:31:01;8.60;99.90
39017;DHT22;24784;45.582;5.276;2023-02-18T05:33:27;8.60;99.90
39017;DHT22;24784;45.582;5.276;2023-02-18T05:35:53;8.60;99.90
39017;DHT22;24784;45.582;5.276;2023-02-18T05:38:18;8.60;99.90
39017;DHT22;24784;45.582;5.276;2023-02-18T05:40:44;8.70;99.90
39017;DHT22;24784;45.582;5.276;2023-02-18T05:43:10;8.70;99.90
39017;DHT22;24784;45.582;5.276;2023-02-18T05:45:36;8.70;99.90
39017;DHT22;24784;45.582;5.276;2023-02-18T05:48:02;8.70;99.90
39017;DHT22;24784;45.582;5.276;2023-02-18T05:50:28;8.80;99.90
39017;DHT22;24784;45.582;5.276;2023-02-18T05:52:54;8.80;99.90
39017;DHT22;24784;45.582;5.276;2023-02-18T05:55:19;8.70;99.90
39017;DHT22;24784;45.582;5.276;2023-02-18T05:57:45;8.60;99.90
39017;DHT22;24784;45.582;5.276;2023-02-18T06:00:11;8.60;99.90
39017;DHT22;24784;45.582;5.276;2023-02-18T06:02:37;8.60;99.90
39017;DHT22;24784;45.582;5.276;2023-02-18T06:05:04;8.60;99.90
39017;DHT22;24784;45.582;5.276;2023-02-18T06:07:30;8.70;99.90
39017;DHT22;24784;45.582;5.276;2023-02-18T06:09:56;8.70;99.90
39017;DHT22;24784;45.582;5.276;2023-02-18T06:12:22;8.70;99.90
39017;DHT22;24784;45.582;5.276;2023-02-18T06:14:48;8.70;99.90
39017;DHT22;24784;45.582;5.276;2023-02-18T06:17:14;8.70;99.90
39017;DHT22;24784;45.582;5.276;2023-02-18T06:19:40;8.70;99.90
39017;DHT22;24784;45.582;5.276;2023-02-18T06:22:06;8.60;99.90
39017;DHT22;24784;45.582;5.276;2023-02-18T06:24:32;8.60;99.90
39017;DHT22;24784;45.582;5.276;2023-02-18T06:26:58;8.60;99.90
39017;DHT22;24784;45.582;5.276;2023-02-18T06:29:24;8.60;99.90
39017;DHT22;24784;45.582;5.276;2023-02-18T06:31:50;8.70;99.90
39017;DHT22;24784;45.582;5.276;2023-02-18T06:34:16;8.70;99.90
39017;DHT22;24784;45.582;5.276;2023-02-18T06:36:42;8.60;99.90
39017;DHT22;24784;45.582;5.276;2023-02-18T06:39:07;8.70;99.90
39017;DHT22;24784;45.582;5.276;2023-02-18T06:41:33;8.60;99.90
39017;DHT22;24784;45.582;5.276;2023-02-18T06:43:59;8.50;99.90
39017;DHT22;24784;45.582;5.276;2023-02-18T06:46:25;8.50;99.90
39017;DHT22;24784;45.582;5.276;2023-02-18T06:48:51;8.50;99.90
39017;DHT22;24784;45.582;5.276;2023-02-18T06:51:16;8.50;99.90
39017;DHT22;24784;45.582;5.276;2023-02-18T06:53:44;8.50;99.90
39017;DHT22;24784;45.582;5.276;2023-02-18T06:56:11;8.60;99.90
39017;DHT22;24784;45.582;5.276;2023-02-18T06:58:37;8.60;99.90
39017;DHT22;24784;45.582;5.276;2023-02-18T07:01:03;8.70;99.90
39017;DHT22;24784;45.582;5.276;2023-02-18T07:03:29;8.70;99.90
39017;DHT22;24784;45.582;5.276;2023-02-18T07:05:55;8.70;99.90
39017;DHT22;24784;45.582;5.276;2023-02-18T07:08:21;8.70;99.90
39017;DHT22;24784;45.582;5.276;2023-02-18T07:10:47;8.80;99.90
39017;DHT22;24784;45.582;5.276;2023-02-18T07:13:13;8.70;99.90
39017;DHT22;24784;45.582;5.276;2023-02-18T07:15:39;8.80;99.90
39017;DHT22;24784;45.582;5.276;2023-02-18T07:18:05;8.80;99.90
39017;DHT22;24784;45.582;5.276;2023-02-18T07:20:31;8.80;99.90
39017;DHT22;24784;45.582;5.276;2023-02-18T07:22:57;8.80;99.90
39017;DHT22;24784;45.582;5.276;2023-02-18T07:25:23;8.80;99.90
39017;DHT22;24784;45.582;5.276;2023-02-18T07:27:48;8.80;99.90
39017;DHT22;24784;45.582;5.276;2023-02-18T07:30:14;8.80;99.90
39017;DHT22;24784;45.582;5.276;2023-02-18T07:32:40;8.80;99.90
39017;DHT22;24784;45.582;5.276;2023-02-18T07:35:07;8.90;99.90
39017;DHT22;24784;45.582;5.276;2023-02-18T07:37:32;8.90;99.90
39017;DHT22;24784;45.582;5.276;2023-02-18T07:39:58;9.00;99.90
39017;DHT22;24784;45.582;5.276;2023-02-18T07:42:24;9.00;99.90
39017;DHT22;24784;45.582;5.276;2023-02-18T07:44:50;9.10;99.90
39017;DHT22;24784;45.582;5.276;2023-02-18T07:47:16;9.20;99.90
39017;DHT22;24784;45.582;5.276;2023-02-18T07:49:45;9.20;99.90
39017;DHT22;24784;45.582;5.276;2023-02-18T07:52:12;9.20;99.90
39017;DHT22;24784;45.582;5.276;2023-02-18T07:54:38;9.20;99.90
39017;DHT22;24784;45.582;5.276;2023-02-18T07:57:03;9.30;99.90
39017;DHT22;24784;45.582;5.276;2023-02-18T07:59:29;9.40;99.90
39017;DHT22;24784;45.582;5.276;2023-02-18T08:01:55;9.40;99.90
39017;DHT22;24784;45.582;5.276;2023-02-18T08:04:21;9.40;99.90
39017;DHT22;24784;45.582;5.276;2023-02-18T08:06:48;9.50;99.90
39017;DHT22;24784;45.582;5.276;2023-02-18T08:09:16;9.50;99.90
39017;DHT22;24784;45.582;5.276;2023-02-18T08:11:42;9.50;99.90
39017;DHT22;24784;45.582;5.276;2023-02-18T08:14:08;9.60;99.90
39017;DHT22;24784;45.582;5.276;2023-02-18T08:16:34;9.60;99.90
39017;DHT22;24784;45.582;5.276;2023-02-18T08:19:02;9.70;99.90
39017;DHT22;24784;45.582;5.276;2023-02-18T08:21:28;9.70;99.90
39017;DHT22;24784;45.582;5.276;2023-02-18T08:23:54;9.80;99.90
39017;DHT22;24784;45.582;5.276;2023-02-18T08:26:20;9.80;99.90
39017;DHT22;24784;45.582;5.276;2023-02-18T08:28:47;9.90;99.90
39017;DHT22;24784;45.582;5.276;2023-02-18T08:31:23;9.90;99.90
39017;DHT22;24784;45.582;5.276;2023-02-18T08:33:50;10.00;99.90
39017;DHT22;24784;45.582;5.276;2023-02-18T08:36:16;10.10;99.90
39017;DHT22;24784;45.582;5.276;2023-02-18T08:38:42;10.20;99.90
39017;DHT22;24784;45.582;5.276;2023-02-18T08:41:08;10.20;99.90
39017;DHT22;24784;45.582;5.276;2023-02-18T08:43:34;10.30;99.90
39017;DHT22;24784;45.582;5.276;2023-02-18T08:46:01;10.30;99.90
39017;DHT22;24784;45.582;5.276;2023-02-18T08:48:28;10.40;99.90
39017;DHT22;24784;45.582;5.276;2023-02-18T08:50:56;10.40;99.90
39017;DHT22;24784;45.582;5.276;2023-02-18T08:53:22;10.40;99.90
39017;DHT22;24784;45.582;5.276;2023-02-18T08:55:48;10.50;99.90
39017;DHT22;24784;45.582;5.276;2023-02-18T08:58:13;10.60;99.90
39017;DHT22;24784;45.582;5.276;2023-02-18T09:00:41;10.70;99.90
39017;DHT22;24784;45.582;5.276;2023-02-18T09:03:07;10.70;99.90
39017;DHT22;24784;45.582;5.276;2023-02-18T09:05:33;10.80;99.90
39017;DHT22;24784;45.582;5.276;2023-02-18T09:07:58;10.80;99.90
39017;DHT22;24784;45.582;5.276;2023-02-18T09:10:24;10.90;99.90
39017;DHT22;24784;45.582;5.276;2023-02-18T09:12:50;10.90;99.90
39017;DHT22;24784;45.582;5.276;2023-02-18T09:15:16;10.90;99.90
39017;DHT22;24784;45.582;5.276;2023-02-18T09:17:42;10.80;99.90
39017;DHT22;24784;45.582;5.276;2023-02-18T09:20:08;10.90;99.90
39017;DHT22;24784;45.582;5.276;2023-02-18T09:22:34;11.00;99.90
39017;DHT22;24784;45.582;5.276;2023-02-18T09:25:00;11.10;99.90
39017;DHT22;24784;45.582;5.276;2023-02-18T09:27:26;11.10;99.90
39017;DHT22;24784;45.582;5.276;2023-02-18T09:29:51;11.10;99.90
39017;DHT22;24784;45.582;5.276;2023-02-18T09:32:17;11.10;99.90
39017;DHT22;24784;45.582;5.276;2023-02-18T09:34:44;11.20;99.90
39017;DHT22;24784;45.582;5.276;2023-02-18T09:37:10;11.30;99.90
39017;DHT22;24784;45.582;5.276;2023-02-18T09:39:36;11.40;99.90
39017;DHT22;24784;45.582;5.276;2023-02-18T09:42:04;11.50;99.90
39017;DHT22;24784;45.582;5.276;2023-02-18T09:44:36;11.40;99.90
39017;DHT22;24784;45.582;5.276;2023-02-18T09:47:12;11.50;99.90
39017;DHT22;24784;45.582;5.276;2023-02-18T09:49:43;11.50;99.90
39017;DHT22;24784;45.582;5.276;2023-02-18T09:52:41;11.70;99.90
39017;DHT22;24784;45.582;5.276;2023-02-18T09:57:44;11.90;99.90
39017;DHT22;24784;45.582;5.276;2023-02-18T10:00:40;11.90;99.90
39017;DHT22;24784;45.582;5.276;2023-02-18T10:03:21;12.00;99.90
39017;DHT22;24784;45.582;5.276;2023-02-18T10:08:20;12.20;99.90
39017;DHT22;24784;45.582;5.276;2023-02-18T10:10:48;12.30;99.90
39017;DHT22;24784;45.582;5.276;2023-02-18T10:13:16;12.40;99.90
39017;DHT22;24784;45.582;5.276;2023-02-18T10:15:44;12.40;99.90
39017;DHT22;24784;45.582;5.276;2023-02-18T10:18:26;12.40;99.90
39017;DHT22;24784;45.582;5.276;2023-02-18T10:21:00;12.40;99.90
39017;DHT22;24784;45.582;5.276;2023-02-18T10:23:28;12.50;99.90
39017;DHT22;24784;45.582;5.276;2023-02-18T10:25:56;12.60;99.90
39017;DHT22;24784;45.582;5.276;2023-02-18T10:28:23;12.50;99.90
39017;DHT22;24784;45.582;5.276;2023-02-18T10:30:58;12.60;99.90
39017;DHT22;24784;45.582;5.276;2023-02-18T10:33:35;12.70;99.90
39017;DHT22;24784;45.582;5.276;2023-02-18T10:49:59;13.10;99.90
39017;DHT22;24784;45.582;5.276;2023-02-18T10:52:37;13.20;99.90
39017;DHT22;24784;45.582;5.276;2023-02-18T10:55:08;13.30;99.90
39017;DHT22;24784;45.582;5.276;2023-02-18T10:57:51;13.30;99.90
39017;DHT22;24784;45.582;5.276;2023-02-18T11:00:25;13.40;99.90
39017;DHT22;24784;45.582;5.276;2023-02-18T11:03:01;13.40;99.90
39017;DHT22;24784;45.582;5.276;2023-02-18T11:05:28;13.40;99.90
39017;DHT22;24784;45.582;5.276;2023-02-18T11:07:56;13.40;99.90
39017;DHT22;24784;45.582;5.276;2023-02-18T11:10:32;13.40;99.90
39017;DHT22;24784;45.582;5.276;2023-02-18T11:13:02;13.40;99.90
39017;DHT22;24784;45.582;5.276;2023-02-18T11:15:29;13.60;99.90
39017;DHT22;24784;45.582;5.276;2023-02-18T11:17:57;13.70;99.90
39017;DHT22;24784;45.582;5.276;2023-02-18T11:20:35;13.80;99.90
39017;DHT22;24784;45.582;5.276;2023-02-18T11:25:32;14.10;99.90
39017;DHT22;24784;45.582;5.276;2023-02-18T11:28:02;13.70;99.90
39017;DHT22;24784;45.582;5.276;2023-02-18T11:30:43;13.80;99.90
39017;DHT22;24784;45.582;5.276;2023-02-18T11:33:17;14.00;99.90
39017;DHT22;24784;45.582;5.276;2023-02-18T11:35:54;14.10;99.90
39017;DHT22;24784;45.582;5.276;2023-02-18T11:38:36;13.80;99.90
39017;DHT22;24784;45.582;5.276;2023-02-18T11:41:11;13.80;99.90
39017;DHT22;24784;45.582;5.276;2023-02-18T11:43:41;13.60;99.90
39017;DHT22;24784;45.582;5.276;2023-02-18T11:46:19;13.60;99.90
39017;DHT22;24784;45.582;5.276;2023-02-18T11:48:46;13.60;99.90
39017;DHT22;24784;45.582;5.276;2023-02-18T11:54:27;14.20;99.90
39017;DHT22;24784;45.582;5.276;2023-02-18T11:57:00;14.60;99.90
39017;DHT22;24784;45.582;5.276;2023-02-18T11:59:29;14.70;99.90
39017;DHT22;24784;45.582;5.276;2023-02-18T12:04:51;14.90;99.90
39017;DHT22;24784;45.582;5.276;2023-02-18T12:07:32;14.90;99.90
39017;DHT22;24784;45.582;5.276;2023-02-18T12:10:09;15.10;99.90
39017;DHT22;24784;45.582;5.276;2023-02-18T12:13:02;14.60;99.90
39017;DHT22;24784;45.582;5.276;2023-02-18T12:34:22;15.20;99.90
39017;DHT22;24784;45.582;5.276;2023-02-18T12:56:05;14.80;99.90
39017;DHT22;24784;45.582;5.276;2023-02-18T13:04:26;14.90;99.90
39017;DHT22;24784;45.582;5.276;2023-02-18T13:15:17;15.10;99.90
39017;DHT22;24784;45.582;5.276;2023-02-18T13:17:44;14.90;99.60
39017;DHT22;24784;45.582;5.276;2023-02-18T13:20:20;14.80;99.90
39017;DHT22;24784;45.582;5.276;2023-02-18T13:22:48;14.80;99.10
39017;DHT22;24784;45.582;5.276;2023-02-18T13:25:16;14.90;99.40
39017;DHT22;24784;45.582;5.276;2023-02-18T13:35:42;14.80;98.70
39017;DHT22;24784;45.582;5.276;2023-02-18T13:38:22;15.20;99.80
39017;DHT22;24784;45.582;5.276;2023-02-18T13:40:51;15.30;98.90
39017;DHT22;24784;45.582;5.276;2023-02-18T13:48:27;15.30;99.10
39017;DHT22;24784;45.582;5.276;2023-02-18T13:51:01;15.40;98.50
39017;DHT22;24784;45.582;5.276;2023-02-18T13:53:29;15.30;98.00
39017;DHT22;24784;45.582;5.276;2023-02-18T13:56:09;15.40;98.10
39017;DHT22;24784;45.582;5.276;2023-02-18T13:58:48;15.10;98.10
39017;DHT22;24784;45.582;5.276;2023-02-18T14:03:56;15.30;97.60
39017;DHT22;24784;45.582;5.276;2023-02-18T14:06:30;15.10;98.20
39017;DHT22;24784;45.582;5.276;2023-02-18T14:11:52;15.60;98.00
39017;DHT22;24784;45.582;5.276;2023-02-18T14:22:32;15.30;98.00
39017;DHT22;24784;45.582;5.276;2023-02-18T14:27:34;15.40;97.90
39017;DHT22;24784;45.582;5.276;2023-02-18T14:30:15;15.30;98.00
39017;DHT22;24784;45.582;5.276;2023-02-18T14:32:45;15.30;97.50
39017;DHT22;24784;45.582;5.276;2023-02-18T14:46:19;15.10;97.10
39017;DHT22;24784;45.582;5.276;2023-02-18T14:51:39;15.00;97.70
39017;DHT22;24784;45.582;5.276;2023-02-18T14:54:12;15.10;97.40
39017;DHT22;24784;45.582;5.276;2023-02-18T14:56:48;14.90;96.90
39017;DHT22;24784;45.582;5.276;2023-02-18T14:59:20;14.90;97.50
39017;DHT22;24784;45.582;5.276;2023-02-18T15:01:46;14.80;97.00
39017;DHT22;24784;45.582;5.276;2023-02-18T15:04:15;14.70;97.70
39017;DHT22;24784;45.582;5.276;2023-02-18T15:06:41;14.70;97.40
39017;DHT22;24784;45.582;5.276;2023-02-18T15:09:20;14.90;97.70
39017;DHT22;24784;45.582;5.276;2023-02-18T15:12:04;14.80;97.00
39017;DHT22;24784;45.582;5.276;2023-02-18T15:14:41;14.70;97.80
39017;DHT22;24784;45.582;5.276;2023-02-18T15:17:14;14.60;97.40
39017;DHT22;24784;45.582;5.276;2023-02-18T15:19:43;14.50;97.40
39017;DHT22;24784;45.582;5.276;2023-02-18T15:22:17;14.50;97.30
39017;DHT22;24784;45.582;5.276;2023-02-18T15:24:44;14.60;98.00
39017;DHT22;24784;45.582;5.276;2023-02-18T15:27:24;14.50;97.70
39017;DHT22;24784;45.582;5.276;2023-02-18T15:29:56;14.50;97.90
39017;DHT22;24784;45.582;5.276;2023-02-18T15:32:27;14.50;98.10
39017;DHT22;24784;45.582;5.276;2023-02-18T15:34:57;14.50;97.80
39017;DHT22;24784;45.582;5.276;2023-02-18T15:37:23;14.40;98.00
39017;DHT22;24784;45.582;5.276;2023-02-18T15:39:49;14.40;98.10
39017;DHT22;24784;45.582;5.276;2023-02-18T15:42:32;14.20;98.20
39017;DHT22;24784;45.582;5.276;2023-02-18T15:47:30;14.20;98.40
39017;DHT22;24784;45.582;5.276;2023-02-18T15:49:59;14.10;98.60
39017;DHT22;24784;45.582;5.276;2023-02-18T15:52:28;14.10;98.90
39017;DHT22;24784;45.582;5.276;2023-02-18T15:55:05;14.00;99.00
39017;DHT22;24784;45.582;5.276;2023-02-18T15:57:32;14.10;99.10
39017;DHT22;24784;45.582;5.276;2023-02-18T16:00:16;14.10;99.00
39017;DHT22;24784;45.582;5.276;2023-02-18T16:03:02;14.00;99.20
39017;DHT22;24784;45.582;5.276;2023-02-18T16:05:29;14.00;99.00
39017;DHT22;24784;45.582;5.276;2023-02-18T16:08:06;13.90;99.10
39017;DHT22;24784;45.582;5.276;2023-02-18T16:13:12;13.80;99.60
39017;DHT22;24784;45.582;5.276;2023-02-18T16:15:41;13.80;99.70
39017;DHT22;24784;45.582;5.276;2023-02-18T16:18:30;13.70;99.70
39017;DHT22;24784;45.582;5.276;2023-02-18T16:23:50;13.50;99.90
39017;DHT22;24784;45.582;5.276;2023-02-18T16:29:11;13.40;99.90
39017;DHT22;24784;45.582;5.276;2023-02-18T16:31:38;13.30;99.90
39017;DHT22;24784;45.582;5.276;2023-02-18T16:34:03;13.10;99.90
39017;DHT22;24784;45.582;5.276;2023-02-18T16:36:29;13.00;99.90
39017;DHT22;24784;45.582;5.276;2023-02-18T16:38:55;12.90;99.90
39017;DHT22;24784;45.582;5.276;2023-02-18T16:41:23;12.90;99.90
39017;DHT22;24784;45.582;5.276;2023-02-18T16:43:49;12.70;99.90
39017;DHT22;24784;45.582;5.276;2023-02-18T16:46:20;12.60;99.90
39017;DHT22;24784;45.582;5.276;2023-02-18T16:48:52;12.40;99.90
39017;DHT22;24784;45.582;5.276;2023-02-18T16:51:28;12.30;99.90
39017;DHT22;24784;45.582;5.276;2023-02-18T16:53:55;12.20;99.90
39017;DHT22;24784;45.582;5.276;2023-02-18T16:56:24;12.20;99.90
39017;DHT22;24784;45.582;5.276;2023-02-18T16:58:49;12.20;99.90
39017;DHT22;24784;45.582;5.276;2023-02-18T17:01:45;11.90;99.90
39017;DHT22;24784;45.582;5.276;2023-02-18T17:04:13;11.80;99.90
39017;DHT22;24784;45.582;5.276;2023-02-18T17:06:39;11.70;99.90
39017;DHT22;24784;45.582;5.276;2023-02-18T17:09:14;11.50;99.90
39017;DHT22;24784;45.582;5.276;2023-02-18T17:11:43;11.50;99.90
39017;DHT22;24784;45.582;5.276;2023-02-18T17:14:13;11.60;99.90
39017;DHT22;24784;45.582;5.276;2023-02-18T17:16:38;11.50;99.90
39017;DHT22;24784;45.582;5.276;2023-02-18T17:19:04;11.40;99.90
39017;DHT22;24784;45.582;5.276;2023-02-18T17:21:30;11.20;99.90
39017;DHT22;24784;45.582;5.276;2023-02-18T17:23:56;11.20;99.90
39017;DHT22;24784;45.582;5.276;2023-02-18T17:26:22;11.10;99.90
39017;DHT22;24784;45.582;5.276;2023-02-18T17:28:52;11.10;99.90
39017;DHT22;24784;45.582;5.276;2023-02-18T17:33:52;11.00;99.90
39017;DHT22;24784;45.582;5.276;2023-02-18T17:36:18;10.90;99.90
39017;DHT22;24784;45.582;5.276;2023-02-18T17:38:45;10.80;99.90
39017;DHT22;24784;45.582;5.276;2023-02-18T17:41:12;10.60;99.90
39017;DHT22;24784;45.582;5.276;2023-02-18T17:43:38;10.40;99.90
39017;DHT22;24784;45.582;5.276;2023-02-18T17:46:04;10.50;99.90
39017;DHT22;24784;45.582;5.276;2023-02-18T17:48:31;10.60;99.90
39017;DHT22;24784;45.582;5.276;2023-02-18T17:50:57;10.40;99.90
39017;DHT22;24784;45.582;5.276;2023-02-18T17:53:23;10.30;99.90
39017;DHT22;24784;45.582;5.276;2023-02-18T17:55:49;10.40;99.90
39017;DHT22;24784;45.582;5.276;2023-02-18T17:58:15;10.10;99.90
39017;DHT22;24784;45.582;5.276;2023-02-18T18:00:48;10.10;99.90
39017;DHT22;24784;45.582;5.276;2023-02-18T18:03:14;10.10;99.90
39017;DHT22;24784;45.582;5.276;2023-02-18T18:05:43;10.10;99.90
39017;DHT22;24784;45.582;5.276;2023-02-18T18:08:09;10.00;99.90
39017;DHT22;24784;45.582;5.276;2023-02-18T18:10:38;10.00;99.90
39017;DHT22;24784;45.582;5.276;2023-02-18T18:13:08;9.90;99.90
39017;DHT22;24784;45.582;5.276;2023-02-18T18:15:41;9.80;99.90
39017;DHT22;24784;45.582;5.276;2023-02-18T18:18:08;9.70;99.90
39017;DHT22;24784;45.582;5.276;2023-02-18T18:20:34;9.70;99.90
39017;DHT22;24784;45.582;5.276;2023-02-18T18:23:02;9.50;99.90
39017;DHT22;24784;45.582;5.276;2023-02-18T18:25:30;9.30;99.90
39017;DHT22;24784;45.582;5.276;2023-02-18T18:27:57;9.30;99.90
39017;DHT22;24784;45.582;5.276;2023-02-18T18:30:26;9.20;99.90
39017;DHT22;24784;45.582;5.276;2023-02-18T18:32:52;9.30;99.90
39017;DHT22;24784;45.582;5.276;2023-02-18T18:35:19;9.20;99.90
39017;DHT22;24784;45.582;5.276;2023-02-18T18:37:46;9.10;99.90
39017;DHT22;24784;45.582;5.276;2023-02-18T18:40:11;8.90;99.90
39017;DHT22;24784;45.582;5.276;2023-02-18T18:42:37;8.90;99.90
39017;DHT22;24784;45.582;5.276;2023-02-18T18:45:03;8.90;99.90